Angola, LA

1:42 PM CST on February 01, 2015 (GMT -0600)
False River | Change Station
CLOSE
Current Station
Airport
Location: New Roads False River Regiona,
Elevation: 39 ft
Nearby Weather Stations

Elev 39 ft 30.72 °N, 91.48 °W | Updated 7 minutes ago

Overcast
Overcast
68 °F
Feels Like 68 °F
N
13
Wind Variable Wind from South

Today
High -- | Low -- °F
--% Chance of Precip.
Yesterday
High -- | Low -- °F
Precip. -- in
6:58 AM 5:41 PM
Waxing Gibbous, 96% visible
Pressure 29.89 in
Visibility 10.0 miles
Clouds Mostly Cloudy 1000 ft
Overcast 1300 ft
Dew Point 64 °F
Humidity 88%
Rainfall 0.17 in
Snow Depth Not available.
UV 2 out of 12
Pollen 7.60 out of 12
Air Quality Not available.
Flu Activity Not available.
METAR KHZR 011935Z AUTO 18011KT 10SM BKN010 OVC013 20/18 A2989 RMK AO2 T02000180

More Conditions Fewer Conditions

Pressure 29.89 in
Visibility 10.0 miles
Clouds Mostly Cloudy 1000 ft
Overcast 1300 ft
Dew Point 64 °F
Humidity 88%
Rainfall 0.17 in
Snow Depth Not available.
UV 2 out of 12
Pollen 7.60 out of 12
Air Quality Not available.
Flu Activity Not available.
METAR KHZR 011935Z AUTO 18011KT 10SM BKN010 OVC013 20/18 A2989 RMK AO2 T02000180

More Conditions Fewer Conditions

10-Day Weather Forecast

Almanac

Astronomy

Feb. 01, 2015 Rise Set
Actual Time
Civil Twilight
Nautical Twilight
Astronomical Twilight
Moon
Length of Visible Light
Length of Day
Tomorrow will be .
, % of the Moon is Illuminated

Today's Extremes

State Highs State Lows

Community

WunderPhotos

Upload Photos

1,792,471 photos uploaded!

WunderBlogs® & News

Nearby

Air Quality

  Air Quality AQ Index Pollutant
Not available.

Snow Depth

Station Depth Elevation

Earthquake Activity

City Distance Mag. Time & Date
Minimum magnitude displayed is 2.5.

Coastal Water Temperatures

Place Temperature

Nearby Weather Stations